Time;durP1;ratioP1;P1;durP2;ratioP2;P2;SDS_P1;SDS_P2;PMS_P1;PMS_P2;Temp;Humidity;BMP_temperature;BMP_pressure;BME280_temperature;BME280_humidity;BME280_pressure;Samples;Min_cycle;Max_cycle;Signal;HPM_P1;HPM_P2
2022/04/24 00:00:23;;;;;;;7.50;6.80;;;;;;;12.44;40.46;99675.72;687831;28;859;-81
2022/04/24 00:00:44;;;;;;;7.78;6.50;;;;;;;12.34;40.43;99665.22;685052;28;1297;-80
2022/04/24 00:01:05;;;;;;;7.88;6.60;;;;;;;12.34;40.61;99670.47;683880;28;1364;-81
2022/04/24 00:01:25;;;;;;;8.43;7.05;;;;;;;12.35;40.54;99666.09;685228;28;1162;-81
2022/04/24 00:01:46;;;;;;;8.20;7.40;;;;;;;12.42;40.42;99680.94;685143;28;1711;-80
2022/04/24 00:02:07;;;;;;;7.97;7.18;;;;;;;12.37;40.53;99671.34;685362;28;987;-81
2022/04/24 00:02:27;;;;;;;7.47;6.75;;;;;;;12.39;40.59;99666.97;685722;28;1588;-80
2022/04/24 00:02:48;;;;;;;7.10;6.40;;;;;;;12.34;40.55;99660.00;682622;28;1240;-81
2022/04/24 00:03:08;;;;;;;7.13;6.43;;;;;;;12.37;40.30;99663.47;685293;28;1277;-80
2022/04/24 00:03:29;;;;;;;7.00;6.30;;;;;;;12.41;40.51;99687.03;687847;28;1101;-80
2022/04/24 00:03:50;;;;;;;7.00;6.30;;;;;;;12.33;40.56;99671.34;690636;28;1470;-80
2022/04/24 00:04:11;;;;;;;7.10;6.40;;;;;;;12.34;40.61;99670.47;693449;28;1593;-80
2022/04/24 00:04:32;;;;;;;7.33;6.63;;;;;;;12.27;40.61;99662.56;688284;28;1475;-80
2022/04/24 00:04:52;;;;;;;7.80;7.00;;;;;;;12.26;40.84;99660.84;696170;28;866;-81
2022/04/24 00:05:43;;;;;;;7.70;6.90;;;;;;;12.36;40.63;99674.81;695264;28;1294;-80
2022/04/24 00:06:04;;;;;;;7.72;6.78;;;;;;;12.26;40.64;99666.06;684023;28;1559;-80
2022/04/24 00:06:24;;;;;;;7.73;6.83;;;;;;;12.31;40.57;99673.06;690602;28;1177;-80
2022/04/24 00:06:46;;;;;;;7.40;6.63;;;;;;;12.24;41.08;99665.19;690594;28;1012;-81
2022/04/24 00:07:08;;;;;;;7.10;6.40;;;;;;;12.18;40.76;99658.22;690613;28;1262;-80
2022/04/24 00:07:29;;;;;;;7.53;6.70;;;;;;;12.20;40.96;99667.81;693217;28;1344;-80
2022/04/24 00:07:50;;;;;;;8.00;6.78;;;;;;;12.22;41.06;99674.78;684032;28;1703;-81
2022/04/24 00:08:11;;;;;;;7.82;6.47;;;;;;;12.21;40.94;99668.66;685216;28;1182;-80
2022/04/24 00:08:31;;;;;;;6.90;6.20;;;;;;;12.13;41.08;99659.91;687941;28;1012;-80
2022/04/24 00:08:52;;;;;;;6.85;6.18;;;;;;;12.22;40.67;99675.63;690611;28;1290;-80
2022/04/24 00:09:14;;;;;;;6.90;6.25;;;;;;;12.12;40.75;99653.84;687716;28;1387;-80
2022/04/24 00:09:37;;;;;;;7.10;6.40;;;;;;;12.17;40.99;99656.47;688469;28;1166;-80
2022/04/24 00:09:58;;;;;;;8.68;6.68;;;;;;;12.18;40.88;99669.53;688002;28;819;-80
2022/04/24 00:10:18;;;;;;;8.98;7.10;;;;;;;12.06;41.07;99649.44;690459;28;1192;-81
2022/04/24 00:10:39;;;;;;;7.63;6.80;;;;;;;12.12;40.82;99664.28;689850;28;1292;-80
2022/04/24 00:11:00;;;;;;;7.40;6.70;;;;;;;12.15;40.88;99664.28;688268;28;1256;-80
2022/04/24 00:11:20;;;;;;;7.35;6.50;;;;;;;12.12;40.96;99652.94;687595;28;1746;-80
2022/04/24 00:11:41;;;;;;;7.80;6.63;;;;;;;12.12;41.07;99655.56;690153;28;1380;-81
2022/04/24 00:12:02;;;;;;;7.70;6.60;;;;;;;12.15;41.10;99658.19;685073;28;1576;-80
2022/04/24 00:12:24;;;;;;;7.50;6.70;;;;;;;12.11;40.87;99648.59;684812;28;1268;-81
2022/04/24 00:12:45;;;;;;;7.60;6.80;;;;;;;12.24;41.12;99668.69;690335;28;1725;-80
2022/04/24 00:13:06;;;;;;;7.50;6.70;;;;;;;12.19;40.77;99663.41;690672;28;1016;-80
2022/04/24 00:13:27;;;;;;;7.20;6.50;;;;;;;12.20;40.84;99656.47;687421;28;1197;-80
2022/04/24 00:13:47;;;;;;;7.00;6.30;;;;;;;12.19;40.99;99662.56;682536;29;1237;-81
2022/04/24 00:14:10;;;;;;;7.20;6.38;;;;;;;12.18;40.85;99660.81;686488;28;1037;-80
2022/04/24 00:14:31;;;;;;;7.10;6.40;;;;;;;12.22;41.20;99675.63;690405;28;1670;-82
2022/04/24 00:14:51;;;;;;;6.80;6.10;;;;;;;12.14;41.25;99656.44;687754;28;1135;-80
2022/04/24 00:15:12;;;;;;;7.35;6.10;;;;;;;12.12;41.09;99653.84;690566;28;980;-80
2022/04/24 00:15:34;;;;;;;9.10;6.32;;;;;;;12.12;41.05;99650.34;690533;28;1052;-80
2022/04/24 00:15:55;;;;;;;8.90;6.70;;;;;;;12.15;40.97;99666.91;690545;28;1241;-80
2022/04/24 00:16:15;;;;;;;8.32;6.72;;;;;;;12.15;40.83;99655.56;690510;28;1071;-80
2022/04/24 00:16:39;;;;;;;7.43;6.63;;;;;;;12.14;41.05;99666.91;688676;28;1230;-80
2022/04/24 00:17:00;;;;;;;7.20;6.50;;;;;;;12.10;41.00;99659.91;690588;28;1256;-80
2022/04/24 00:17:21;;;;;;;7.27;6.57;;;;;;;12.05;41.06;99652.91;687774;28;1540;-80
2022/04/24 00:17:42;;;;;;;7.50;6.70;;;;;;;12.12;41.28;99668.63;687634;28;1360;-80
2022/04/24 00:18:02;;;;;;;7.55;6.75;;;;;;;12.10;41.03;99662.53;690465;28;1156;-80
2022/04/24 00:18:23;;;;;;;7.40;6.70;;;;;;;12.13;41.04;99659.91;685486;28;1496;-81
2022/04/24 00:18:43;;;;;;;7.18;6.47;;;;;;;12.04;41.19;99655.56;690373;28;1179;-80
2022/04/24 00:19:04;;;;;;;6.90;6.30;;;;;;;12.10;41.03;99655.53;688669;28;1426;-80
2022/04/24 00:19:25;;;;;;;6.97;6.28;;;;;;;12.01;41.08;99645.06;686252;28;1745;-80
2022/04/24 00:19:46;;;;;;;7.20;6.50;;;;;;;12.05;40.95;99658.16;687389;28;1400;-80
2022/04/24 00:20:07;;;;;;;7.28;6.57;;;;;;;12.10;41.41;99665.16;690478;28;1262;-80
2022/04/24 00:20:28;;;;;;;7.40;6.70;;;;;;;12.01;41.22;99653.78;689892;28;1994;-81
2022/04/24 00:20:48;;;;;;;7.20;6.50;;;;;;;12.00;41.45;99652.03;687937;28;1186;-81
2022/04/24 00:21:09;;;;;;;7.20;6.50;;;;;;;12.06;41.44;99662.50;690529;28;917;-80
2022/04/24 00:21:30;;;;;;;7.10;6.40;;;;;;;11.97;41.49;99657.25;693259;28;1578;-81
2022/04/24 00:21:50;;;;;;;7.85;6.72;;;;;;;11.93;41.31;99647.66;693253;28;1088;-80
2022/04/24 00:22:11;;;;;;;7.90;6.82;;;;;;;12.04;41.46;99666.00;689153;28;1777;-81
2022/04/24 00:22:32;;;;;;;8.50;6.80;;;;;;;11.96;41.69;99663.34;684719;28;1268;-80
2022/04/24 00:22:52;;;;;;;7.60;6.60;;;;;;;11.91;41.46;99650.25;687800;28;1125;-80
2022/04/24 00:23:13;;;;;;;7.67;6.77;;;;;;;11.96;41.75;99657.22;685098;28;1115;-80
2022/04/24 00:23:34;;;;;;;7.53;6.82;;;;;;;11.98;41.54;99656.38;684663;28;1289;-80
2022/04/24 00:23:54;;;;;;;7.30;6.60;;;;;;;11.95;41.81;99656.38;690449;28;1326;-80
2022/04/24 00:24:15;;;;;;;6.80;6.10;;;;;;;11.96;41.83;99658.13;687915;28;1277;-80
2022/04/24 00:24:36;;;;;;;7.05;6.20;;;;;;;11.89;41.50;99648.50;691076;28;1241;-81
2022/04/24 00:24:56;;;;;;;7.40;6.60;;;;;;;11.94;41.61;99659.84;690475;28;916;-80
2022/04/24 00:25:17;;;;;;;7.57;6.80;;;;;;;11.89;41.72;99656.34;693143;28;1320;-81
2022/04/24 00:25:37;;;;;;;8.80;6.90;;;;;;;11.89;41.96;99653.72;692919;28;1039;-80
2022/04/24 00:25:59;;;;;;;9.37;7.00;;;;;;;11.88;41.97;99659.81;696043;28;1171;-81
2022/04/24 00:26:19;;;;;;;9.50;7.03;;;;;;;11.84;41.75;99647.59;692834;28;1679;-81
2022/04/24 00:26:40;;;;;;;7.97;7.07;;;;;;;11.84;41.53;99653.69;689735;28;1241;-81
2022/04/24 00:27:00;;;;;;;8.63;7.15;;;;;;;11.85;41.79;99654.59;684891;28;1174;-81
2022/04/24 00:27:21;;;;;;;8.60;7.07;;;;;;;11.88;41.87;99654.59;688309;28;1538;-80
2022/04/24 00:27:42;;;;;;;9.50;6.78;;;;;;;11.87;41.95;99650.25;687856;28;1220;-80
2022/04/24 00:28:03;;;;;;;8.77;6.82;;;;;;;11.86;41.82;99651.09;690539;28;1366;-80
2022/04/24 00:28:24;;;;;;;9.77;6.80;;;;;;;11.84;41.78;99652.81;693252;28;1499;-81
2022/04/24 00:28:45;;;;;;;8.38;6.60;;;;;;;11.87;42.12;99652.84;685283;28;1154;-80
2022/04/24 00:29:06;;;;;;;9.30;6.20;;;;;;;11.79;42.01;99652.78;685125;28;1205;-80
2022/04/24 00:29:26;;;;;;;8.88;6.28;;;;;;;11.82;41.92;99659.78;688353;28;1743;-81
2022/04/24 00:29:47;;;;;;;9.05;6.45;;;;;;;11.74;41.77;99637.09;693021;28;929;-80
2022/04/24 00:30:08;;;;;;;7.10;6.40;;;;;;;11.71;42.06;99637.09;690550;28;1235;-81
2022/04/24 00:30:29;;;;;;;7.07;6.38;;;;;;;11.81;42.11;99652.81;690065;28;1540;-80
2022/04/24 00:30:49;;;;;;;7.60;6.40;;;;;;;11.85;42.04;99654.59;693210;28;1018;-80
2022/04/24 00:31:10;;;;;;;7.80;6.50;;;;;;;11.72;41.86;99638.84;687963;28;1375;-81
2022/04/24 00:31:31;;;;;;;7.47;6.67;;;;;;;11.74;41.87;99642.31;689226;28;1655;-81
2022/04/24 00:31:52;;;;;;;7.25;6.60;;;;;;;11.81;41.96;99652.81;693226;28;1369;-81
2022/04/24 00:32:13;;;;;;;7.03;6.40;;;;;;;11.82;41.71;99655.44;690534;28;1167;-81
2022/04/24 00:32:33;;;;;;;7.15;6.45;;;;;;;11.81;41.75;99647.59;689462;28;1717;-81
2022/04/24 00:32:54;;;;;;;7.40;6.60;;;;;;;11.83;41.78;99651.06;687781;28;1104;-80
2022/04/24 00:33:14;;;;;;;7.57;6.68;;;;;;;11.82;41.96;99657.16;689914;28;1421;-81
2022/04/24 00:33:35;;;;;;;7.33;6.40;;;;;;;11.77;42.05;99647.59;684075;28;941;-80
2022/04/24 00:33:55;;;;;;;7.40;6.30;;;;;;;11.79;42.09;99653.69;690595;28;1694;-81
2022/04/24 00:34:18;;;;;;;7.25;6.45;;;;;;;11.69;42.14;99633.59;685030;28;1434;-81
2022/04/24 00:34:39;;;;;;;7.75;6.97;;;;;;;11.76;42.02;99648.44;687101;28;1290;-80
2022/04/24 00:34:59;;;;;;;7.90;7.10;;;;;;;11.79;42.22;99656.31;690090;28;1058;-81
2022/04/24 00:35:20;;;;;;;7.90;7.10;;;;;;;11.74;42.26;99651.91;687774;28;1354;-80
2022/04/24 00:35:40;;;;;;;9.30;6.70;;;;;;;11.68;42.18;99637.06;687339;28;1284;-81
2022/04/24 00:36:01;;;;;;;9.02;6.28;;;;;;;11.75;42.31;99649.28;690646;28;822;-80
2022/04/24 00:36:21;;;;;;;9.10;6.13;;;;;;;11.68;42.06;99637.06;690447;28;1168;-81
2022/04/24 00:36:44;;;;;;;7.10;6.20;;;;;;;11.74;42.08;99647.53;686412;28;1404;-80
2022/04/24 00:37:05;;;;;;;7.45;6.20;;;;;;;11.69;42.08;99635.34;685126;28;1327;-80
2022/04/24 00:37:25;;;;;;;7.55;6.40;;;;;;;11.74;42.04;99646.69;688186;28;1721;-80
2022/04/24 00:37:46;;;;;;;7.55;6.60;;;;;;;11.72;42.25;99644.06;689795;28;1585;-81
2022/04/24 00:38:07;;;;;;;7.60;6.80;;;;;;;11.70;41.81;99648.41;689745;28;1255;-81
2022/04/24 00:38:27;;;;;;;7.35;6.65;;;;;;;11.71;42.11;99646.66;689245;28;1770;-80
2022/04/24 00:38:48;;;;;;;7.10;6.40;;;;;;;11.57;42.34;99626.53;690438;28;903;-80
2022/04/24 00:39:09;;;;;;;6.93;6.32;;;;;;;11.67;42.29;99651.00;690490;28;1415;-81
2022/04/24 00:39:29;;;;;;;7.23;6.53;;;;;;;11.63;42.12;99641.38;688942;28;1622;-81
2022/04/24 00:39:50;;;;;;;7.88;7.07;;;;;;;11.63;42.50;99662.28;690150;28;1430;-80
2022/04/24 00:40:11;;;;;;;7.72;6.93;;;;;;;11.57;42.42;99638.72;687694;28;1159;-80
2022/04/24 00:40:31;;;;;;;7.25;6.55;;;;;;;11.57;42.23;99634.38;690536;28;1911;-81
2022/04/24 00:40:54;;;;;;;7.20;6.17;;;;;;;11.56;42.23;99639.59;690581;28;969;-80
2022/04/24 00:41:14;;;;;;;7.32;6.20;;;;;;;11.58;42.56;99653.53;687818;28;947;-82
2022/04/24 00:41:35;;;;;;;8.03;6.43;;;;;;;11.52;42.61;99644.81;685662;28;1673;-80
2022/04/24 00:41:55;;;;;;;7.25;6.55;;;;;;;11.57;42.49;99646.56;682542;29;1053;-80
2022/04/24 00:42:17;;;;;;;7.40;6.60;;;;;;;11.62;42.21;99652.69;682515;28;979;-81
2022/04/24 00:42:37;;;;;;;7.90;6.70;;;;;;;11.55;42.53;99640.47;687610;28;1114;-80
2022/04/24 00:42:58;;;;;;;8.30;6.93;;;;;;;11.58;42.42;99640.47;693319;28;704;-81
2022/04/24 00:43:18;;;;;;;8.45;7.10;;;;;;;11.52;42.37;99634.34;690511;28;971;-80
2022/04/24 00:44:19;;;;;;;7.30;6.50;;;;;;;11.58;42.65;99650.91;679602;29;1617;-81
2022/04/24 00:45:10;;;;;;;7.60;6.85;;;;;;;11.47;42.33;99637.78;682640;28;1613;-80
2022/04/24 00:45:34;;;;;;;7.80;7.00;;;;;;;11.44;42.66;99633.41;682967;28;1033;-81
2022/04/24 00:46:25;;;;;;;7.43;6.68;;;;;;;11.47;42.75;99648.22;679704;29;1171;-81
2022/04/24 00:47:06;;;;;;;7.35;6.65;;;;;;;11.42;42.94;99653.44;676527;29;1379;-80
2022/04/24 00:47:27;;;;;;;7.28;6.57;;;;;;;11.30;43.15;99637.69;682315;29;1212;-81
2022/04/24 00:47:53;;;;;;;7.45;6.65;;;;;;;11.37;42.87;99642.09;685027;28;1688;-81
2022/04/24 00:48:14;;;;;;;8.65;7.32;;;;;;;11.36;42.99;99640.31;682118;28;1978;-80
2022/04/24 00:48:34;;;;;;;8.55;7.20;;;;;;;11.36;42.96;99636.00;683054;28;1811;-80
2022/04/24 00:48:55;;;;;;;7.82;7.00;;;;;;;11.36;42.88;99650.78;682190;29;1229;-81
2022/04/24 00:49:16;;;;;;;7.68;6.97;;;;;;;11.29;42.98;99641.16;679681;29;1331;-80
2022/04/24 00:49:38;;;;;;;7.53;6.83;;;;;;;11.36;43.12;99653.38;679117;29;1165;-81
2022/04/24 00:49:58;;;;;;;7.65;6.95;;;;;;;11.24;43.33;99642.00;679803;29;1343;-81
2022/04/24 00:50:19;;;;;;;7.90;7.10;;;;;;;11.33;43.12;99645.53;684240;28;1173;-80
2022/04/24 00:50:40;;;;;;;8.13;7.33;;;;;;;11.25;43.21;99637.66;693159;28;1154;-80
2022/04/24 00:51:00;;;;;;;8.48;7.57;;;;;;;11.26;43.08;99633.31;695364;28;1185;-81
2022/04/24 00:51:21;;;;;;;7.78;7.00;;;;;;;11.31;43.60;99647.28;691682;28;1679;-80
2022/04/24 00:51:43;;;;;;;7.47;6.77;;;;;;;11.26;43.35;99638.53;692654;28;1210;-80
2022/04/24 00:52:04;;;;;;;7.25;6.55;;;;;;;11.30;43.27;99651.59;690340;28;1248;-80
2022/04/24 00:52:24;;;;;;;7.20;6.50;;;;;;;11.30;43.28;99646.38;690316;28;1237;-81
2022/04/24 00:52:49;;;;;;;7.70;6.90;;;;;;;11.21;43.26;99636.78;690480;28;896;-81
2022/04/24 00:53:10;;;;;;;8.90;7.10;;;;;;;11.21;43.44;99641.09;693019;28;1381;-81
2022/04/24 00:53:32;;;;;;;8.85;6.90;;;;;;;11.25;43.62;99650.72;691271;28;1702;-80
2022/04/24 00:53:53;;;;;;;8.25;6.70;;;;;;;11.23;43.63;99650.69;687779;28;1570;-80
2022/04/24 00:54:14;;;;;;;7.72;6.68;;;;;;;11.20;43.63;99648.06;682494;28;967;-80
2022/04/24 00:54:35;;;;;;;7.70;6.90;;;;;;;11.16;43.34;99643.69;685740;28;1430;-81
2022/04/24 00:54:55;;;;;;;7.90;7.10;;;;;;;11.09;43.75;99632.34;690274;28;1213;-83
2022/04/24 00:55:23;;;;;;;7.77;6.97;;;;;;;11.09;43.63;99636.66;687977;28;1414;-82
2022/04/24 00:55:43;;;;;;;7.60;6.80;;;;;;;11.08;43.73;99637.53;689976;28;1416;-82
2022/04/24 00:56:05;;;;;;;7.50;6.70;;;;;;;11.14;43.76;99645.41;695868;28;1143;-82
2022/04/24 00:56:30;;;;;;;7.70;6.90;;;;;;;11.11;43.76;99645.38;693157;28;1012;-82
2022/04/24 00:56:51;;;;;;;7.57;6.82;;;;;;;11.09;43.61;99653.22;693204;28;1015;-82
2022/04/24 00:57:13;;;;;;;7.60;6.80;;;;;;;11.04;43.84;99638.34;687828;28;1155;-83
2022/04/24 00:57:34;;;;;;;7.65;6.85;;;;;;;11.05;43.77;99637.53;689855;28;1484;-83
2022/04/24 00:57:54;;;;;;;7.53;6.72;;;;;;;11.00;43.91;99640.06;690458;28;1176;-82
2022/04/24 00:58:15;;;;;;;7.68;6.88;;;;;;;11.00;44.04;99641.81;687314;28;1504;-82
2022/04/24 00:58:36;;;;;;;7.63;6.83;;;;;;;11.04;44.12;99647.06;687179;28;1453;-82
2022/04/24 00:58:58;;;;;;;9.18;6.93;;;;;;;11.02;43.90;99640.09;685078;28;1042;-82
2022/04/24 00:59:19;;;;;;;9.10;6.85;;;;;;;11.01;44.02;99643.56;682413;29;950;-82
2022/04/24 00:59:39;;;;;;;9.30;6.93;;;;;;;10.97;44.09;99643.56;691676;28;1159;-82
2022/04/24 01:00:00;;;;;;;7.57;6.85;;;;;;;11.05;43.99;99651.44;696087;28;771;-82
2022/04/24 01:00:21;;;;;;;7.82;6.70;;;;;;;10.96;44.00;99644.38;690274;28;1894;-82
2022/04/24 01:00:41;;;;;;;7.90;6.80;;;;;;;10.94;44.28;99640.91;692963;28;1183;-83
2022/04/24 01:01:02;;;;;;;8.70;7.20;;;;;;;10.93;44.40;99638.25;693186;28;1240;-82
2022/04/24 01:01:23;;;;;;;8.20;7.40;;;;;;;10.87;44.14;99630.41;693140;28;787;-82
2022/04/24 01:01:44;;;;;;;7.97;7.18;;;;;;;10.99;44.37;99650.53;690202;28;1382;-82
2022/04/24 01:02:07;;;;;;;7.88;7.13;;;;;;;10.94;44.27;99645.25;690491;28;972;-82
2022/04/24 01:02:27;;;;;;;7.40;6.70;;;;;;;10.89;44.29;99628.69;691304;28;1350;-83
2022/04/24 01:02:48;;;;;;;7.97;7.17;;;;;;;10.93;44.03;99640.88;692288;28;1629;-82
2022/04/24 01:03:09;;;;;;;7.60;6.80;;;;;;;10.91;44.31;99638.28;690473;28;1195;-82
2022/04/24 01:03:30;;;;;;;7.90;7.10;;;;;;;10.97;43.95;99648.78;686643;28;1769;-83
2022/04/24 01:03:52;;;;;;;7.70;6.90;;;;;;;10.92;44.29;99640.03;687742;28;1248;-82
2022/04/24 01:04:13;;;;;;;7.60;6.90;;;;;;;11.00;44.29;99654.88;690665;28;1307;-82
2022/04/24 01:04:35;;;;;;;7.30;6.60;;;;;;;10.98;44.13;99654.84;692227;28;1129;-82
2022/04/24 01:04:57;;;;;;;7.10;6.40;;;;;;;10.99;44.42;99653.13;690960;28;1591;-82
2022/04/24 01:05:18;;;;;;;7.45;6.20;;;;;;;10.95;44.10;99644.41;690569;28;969;-83
2022/04/24 01:05:39;;;;;;;8.30;6.30;;;;;;;10.85;44.16;99633.00;691123;28;1138;-83
2022/04/24 01:05:59;;;;;;;8.77;6.68;;;;;;;10.90;44.48;99646.97;690381;28;1540;-82
2022/04/24 01:06:20;;;;;;;8.07;7.18;;;;;;;10.87;44.18;99639.09;684086;28;1363;-82
2022/04/24 01:06:42;;;;;;;8.07;7.27;;;;;;;10.80;44.47;99621.63;684876;28;1180;-81
2022/04/24 01:07:03;;;;;;;8.00;7.20;;;;;;;10.91;44.49;99647.81;684935;28;1530;-82
2022/04/24 01:07:23;;;;;;;7.63;6.82;;;;;;;10.86;44.32;99634.75;685074;28;1383;-83
2022/04/24 01:07:44;;;;;;;8.90;6.93;;;;;;;10.81;44.28;99633.81;682657;28;1165;-83
2022/04/24 01:08:23;;;;;;;8.38;6.68;;;;;;;10.87;44.24;99640.84;682416;29;1169;-83
2022/04/24 01:08:43;;;;;;;7.60;6.80;;;;;;;10.77;44.30;99626.84;687529;28;1626;-82
2022/04/24 01:09:21;;;;;;;7.97;7.00;;;;;;;10.90;44.46;99653.91;690051;28;1538;-81
2022/04/24 01:09:41;;;;;;;8.65;6.90;;;;;;;10.82;44.52;99639.06;688939;28;1190;-83
2022/04/24 01:10:03;;;;;;;9.25;7.00;;;;;;;10.78;44.40;99633.81;684235;28;1350;-82
2022/04/24 01:10:23;;;;;;;7.97;6.45;;;;;;;10.81;44.64;99644.25;690346;28;1045;-82
2022/04/24 01:10:44;;;;;;;7.50;6.50;;;;;;;10.80;44.63;99645.13;690375;28;1166;-82
2022/04/24 01:11:04;;;;;;;7.25;6.55;;;;;;;10.81;44.64;99647.75;682354;28;1161;-82
2022/04/24 01:11:25;;;;;;;7.70;6.90;;;;;;;10.77;44.52;99639.88;687697;28;1119;-82
2022/04/24 01:11:48;;;;;;;8.40;7.50;;;;;;;10.72;44.51;99636.34;687840;28;1110;-83
2022/04/24 01:12:09;;;;;;;8.68;7.30;;;;;;;10.83;44.81;99648.63;687948;28;1127;-82
2022/04/24 01:12:29;;;;;;;8.45;7.10;;;;;;;10.78;44.68;99639.91;688396;28;992;-82
2022/04/24 01:12:50;;;;;;;8.07;6.68;;;;;;;10.80;44.62;99639.91;690448;28;1076;-82
2022/04/24 01:13:11;;;;;;;7.25;6.50;;;;;;;10.77;44.67;99637.28;690412;28;1287;-82
2022/04/24 01:13:32;;;;;;;7.20;6.50;;;;;;;10.82;44.51;99648.63;690272;28;1396;-82
2022/04/24 01:13:52;;;;;;;7.43;6.73;;;;;;;10.79;44.30;99638.16;690486;28;1173;-82
2022/04/24 01:14:16;;;;;;;7.80;7.10;;;;;;;10.72;44.45;99636.34;685140;28;1292;-82
2022/04/24 01:14:36;;;;;;;7.82;7.03;;;;;;;10.79;44.34;99649.47;689345;28;1292;-82
2022/04/24 01:14:57;;;;;;;7.73;6.93;;;;;;;10.73;44.91;99644.19;690517;28;1105;-82
2022/04/24 01:15:18;;;;;;;7.80;7.00;;;;;;;10.71;44.85;99632.88;690008;28;1621;-82
2022/04/24 01:15:38;;;;;;;7.90;7.10;;;;;;;10.71;44.62;99643.31;690415;28;1523;-82
2022/04/24 01:15:59;;;;;;;8.80;7.00;;;;;;;10.79;44.67;99649.47;687826;28;1148;-82
2022/04/24 01:16:19;;;;;;;9.45;7.00;;;;;;;10.68;44.74;99635.44;684974;28;1002;-82
2022/04/24 01:16:40;;;;;;;8.90;6.97;;;;;;;10.70;44.41;99638.97;691921;28;1214;-82
2022/04/24 01:17:03;;;;;;;7.90;7.10;;;;;;;10.73;44.62;99653.75;693232;28;810;-82
2022/04/24 01:17:23;;;;;;;7.70;6.90;;;;;;;10.68;44.95;99646.78;690273;28;1190;-82
2022/04/24 01:17:44;;;;;;;8.18;7.05;;;;;;;10.62;44.74;99633.66;687671;28;1246;-82
2022/04/24 01:18:06;;;;;;;9.17;7.37;;;;;;;10.60;44.96;99632.78;684606;28;1713;-82
2022/04/24 01:18:27;;;;;;;8.60;7.00;;;;;;;10.69;44.66;99647.63;685275;28;957;-82
2022/04/24 01:18:48;;;;;;;7.88;6.90;;;;;;;10.69;45.12;99656.34;690213;28;1126;-83
2022/04/24 01:19:09;;;;;;;7.60;6.80;;;;;;;10.66;45.03;99643.28;687925;28;1268;-82
2022/04/24 01:19:30;;;;;;;7.80;7.00;;;;;;;10.63;44.96;99643.22;684521;28;1091;-82
2022/04/24 01:19:51;;;;;;;7.80;7.00;;;;;;;10.60;45.06;99637.09;687612;28;1183;-83
2022/04/24 01:20:13;;;;;;;7.80;7.00;;;;;;;10.59;44.91;99638.84;684966;28;1152;-82
2022/04/24 01:20:34;;;;;;;9.10;7.38;;;;;;;10.58;44.82;99637.13;688778;28;1918;-83
2022/04/24 01:20:54;;;;;;;8.95;7.20;;;;;;;10.63;44.93;99637.16;690413;28;1102;-83
2022/04/24 01:21:16;;;;;;;8.63;7.10;;;;;;;10.61;45.01;99638.84;690223;28;1348;-82
2022/04/24 01:21:36;;;;;;;7.68;6.88;;;;;;;10.57;45.03;99635.34;688825;28;1166;-82
2022/04/24 01:21:57;;;;;;;7.72;6.93;;;;;;;10.69;45.02;99648.50;685061;28;1062;-82
2022/04/24 01:22:18;;;;;;;8.27;7.25;;;;;;;10.61;44.90;99644.97;685321;28;1365;-83
2022/04/24 01:22:39;;;;;;;7.93;7.10;;;;;;;10.68;44.94;99645.88;688187;28;1397;-82
2022/04/24 01:23:10;;;;;;;8.83;7.40;;;;;;;10.64;45.18;99644.13;687880;28;1235;-82
2022/04/24 01:23:31;;;;;;;8.80;7.40;;;;;;;10.58;44.90;99638.84;683112;28;1093;-82
2022/04/24 01:23:51;;;;;;;7.70;6.90;;;;;;;10.57;45.09;99637.94;687764;28;965;-82
2022/04/24 01:24:13;;;;;;;7.50;6.80;;;;;;;10.52;45.19;99629.22;687779;28;1039;-82
2022/04/24 01:24:34;;;;;;;9.02;7.20;;;;;;;10.64;44.88;99652.81;689250;28;2366;-83
2022/04/24 01:24:54;;;;;;;11.40;7.70;;;;;;;10.53;45.36;99638.78;687450;28;1261;-82
2022/04/24 01:25:15;;;;;;;11.10;7.32;;;;;;;10.58;45.06;99636.22;687653;28;934;-82
2022/04/24 01:25:36;;;;;;;7.77;6.90;;;;;;;10.59;45.03;99644.06;692752;28;1138;-82
2022/04/24 01:25:57;;;;;;;10.93;6.50;;;;;;;10.57;45.09;99632.72;687709;28;1235;-83
2022/04/24 01:26:18;;;;;;;12.88;7.40;;;;;;;10.66;45.17;99648.50;687563;28;1401;-82
2022/04/24 01:26:39;;;;;;;14.03;7.57;;;;;;;10.60;45.24;99637.09;687652;28;1115;-83
2022/04/24 01:27:00;;;;;;;11.40;7.45;;;;;;;10.64;45.26;99644.97;687715;28;1241;-82
2022/04/24 01:27:20;;;;;;;11.07;6.80;;;;;;;10.61;45.00;99628.41;682526;28;1190;-83
2022/04/24 01:27:41;;;;;;;9.10;7.10;;;;;;;10.61;45.16;99644.06;687503;28;1214;-82
2022/04/24 01:28:09;;;;;;;8.80;7.25;;;;;;;10.60;45.24;99635.38;687763;28;1166;-82
2022/04/24 01:28:30;;;;;;;8.30;7.32;;;;;;;10.61;45.14;99631.91;685206;28;1367;-83
2022/04/24 01:29:07;;;;;;;8.57;7.40;;;;;;;10.64;45.13;99644.13;682521;28;744;-82
2022/04/24 01:29:27;;;;;;;8.60;7.30;;;;;;;10.56;44.90;99630.97;685998;28;1741;-82
2022/04/24 01:29:48;;;;;;;8.50;7.20;;;;;;;10.59;45.15;99644.06;689913;28;1307;-82
2022/04/24 01:30:09;;;;;;;8.60;7.10;;;;;;;10.61;45.26;99639.75;690904;28;1154;-82
2022/04/24 01:30:30;;;;;;;7.75;6.95;;;;;;;10.55;45.24;99639.69;691112;28;1035;-83
2022/04/24 01:30:50;;;;;;;7.43;6.60;;;;;;;10.57;45.20;99643.16;687720;28;1182;-83
2022/04/24 01:31:11;;;;;;;7.60;6.70;;;;;;;10.51;45.34;99635.31;687598;28;1510;-82
2022/04/24 01:31:33;;;;;;;7.43;6.63;;;;;;;10.56;45.18;99649.25;691644;28;1779;-82
2022/04/24 01:31:54;;;;;;;7.72;6.93;;;;;;;10.58;45.26;99646.66;688681;28;1253;-82
2022/04/24 01:32:14;;;;;;;7.75;7.00;;;;;;;10.54;45.32;99633.59;685027;28;1122;-82
2022/04/24 01:32:35;;;;;;;8.00;7.20;;;;;;;10.57;45.12;99648.38;687714;28;1170;-82
2022/04/24 01:32:56;;;;;;;8.48;7.57;;;;;;;10.57;45.39;99643.16;689709;28;1218;-82
2022/04/24 01:33:16;;;;;;;8.75;7.85;;;;;;;10.52;45.24;99634.44;687657;28;1229;-82
2022/04/24 01:33:37;;;;;;;9.20;8.10;;;;;;;10.47;45.49;99634.41;685220;28;1430;-82
2022/04/24 01:33:57;;;;;;;10.13;7.73;;;;;;;10.47;45.18;99623.06;685286;28;1725;-83
2022/04/24 01:34:20;;;;;;;9.43;7.30;;;;;;;10.57;45.41;99642.31;690219;28;1204;-82
2022/04/24 01:34:40;;;;;;;9.23;7.15;;;;;;;10.57;45.15;99644.91;687550;28;1556;-82
2022/04/24 01:35:02;;;;;;;8.50;7.30;;;;;;;10.59;45.25;99649.28;690415;28;824;-83
2022/04/24 01:35:23;;;;;;;8.90;7.55;;;;;;;10.52;45.14;99637.06;690453;28;1252;-82
2022/04/24 01:35:43;;;;;;;8.18;7.18;;;;;;;10.55;45.36;99644.88;690438;28;1131;-82
2022/04/24 01:36:04;;;;;;;7.70;6.90;;;;;;;10.45;45.30;99632.63;690374;28;1170;-82
2022/04/24 01:36:25;;;;;;;8.50;7.10;;;;;;;10.50;45.43;99644.84;684977;28;1537;-81
2022/04/24 01:36:46;;;;;;;8.95;7.60;;;;;;;10.53;45.42;99647.50;686653;28;1537;-82
2022/04/24 01:37:08;;;;;;;8.77;7.35;;;;;;;10.44;45.35;99636.09;687677;28;1191;-83
2022/04/24 01:37:28;;;;;;;8.02;7.18;;;;;;;10.45;45.54;99648.28;687663;28;1190;-82
2022/04/24 01:37:49;;;;;;;7.90;7.00;;;;;;;10.45;45.67;99640.44;684969;28;1182;-82
2022/04/24 01:38:09;;;;;;;8.55;7.40;;;;;;;10.42;45.73;99638.69;687735;28;1001;-82
2022/04/24 01:38:30;;;;;;;8.40;7.50;;;;;;;10.40;45.67;99638.66;687934;28;1139;-82
2022/04/24 01:38:50;;;;;;;8.60;7.70;;;;;;;10.33;45.58;99626.41;687779;28;941;-82
2022/04/24 01:39:11;;;;;;;8.90;7.30;;;;;;;10.40;45.57;99632.59;687641;28;1012;-83
2022/04/24 01:39:32;;;;;;;10.60;7.10;;;;;;;10.36;45.75;99633.41;690076;28;1075;-82
2022/04/24 01:39:53;;;;;;;10.35;6.97;;;;;;;10.34;46.00;99636.00;687560;28;938;-83
2022/04/24 01:40:14;;;;;;;8.38;7.20;;;;;;;10.44;45.70;99654.34;684929;28;1390;-82
2022/04/24 01:40:35;;;;;;;8.90;7.32;;;;;;;10.40;45.66;99641.25;686193;28;1987;-82
2022/04/24 01:40:56;;;;;;;13.52;7.68;;;;;;;10.34;45.69;99627.28;687892;28;1214;-82
2022/04/24 01:41:17;;;;;;;13.25;7.57;;;;;;;10.32;45.80;99640.31;684732;28;1635;-82
2022/04/24 01:41:37;;;;;;;12.27;7.50;;;;;;;10.37;45.86;99643.84;686699;28;1159;-82
2022/04/24 01:41:58;;;;;;;8.25;7.43;;;;;;;10.35;45.67;99640.34;685095;28;1305;-83
2022/04/24 01:42:18;;;;;;;8.30;7.40;;;;;;;10.38;45.76;99647.34;690294;28;1029;-82
2022/04/24 01:42:39;;;;;;;8.38;7.40;;;;;;;10.37;46.02;99651.69;692956;28;1279;-83
2022/04/24 01:42:59;;;;;;;8.00;7.15;;;;;;;10.34;45.93;99642.94;693184;28;1288;-82
2022/04/24 01:43:20;;;;;;;7.90;7.10;;;;;;;10.29;46.06;99635.06;687772;28;1283;-82
2022/04/24 01:43:42;;;;;;;8.00;7.20;;;;;;;10.25;46.02;99631.56;686702;28;1230;-82
2022/04/24 01:44:02;;;;;;;8.18;7.28;;;;;;;10.34;46.05;99646.44;687590;28;1280;-81
2022/04/24 01:44:23;;;;;;;9.80;7.60;;;;;;;10.23;45.81;99635.00;687740;28;771;-82
2022/04/24 01:44:43;;;;;;;9.93;7.22;;;;;;;10.30;45.80;99647.25;690132;28;1163;-83
2022/04/24 01:45:05;;;;;;;9.90;7.40;;;;;;;10.29;46.26;99648.09;690404;28;1045;-81